Buoy 20875

sailwx.info

Track history (hours):
 
Tides and Currents Weather Stations Pressure Air Temp Water Temp Dewpoint Dewpoint Depression Visibility Wind Speed Wind Dir Waves Ship Positions

Bold Pursuit

Last reported at 2018-May-02 17:26 UTC. Time now 2018-May-21 01:04 UTC.
Position N 49°58' W 125°11'.
Warning: this ship's position is 18 days out of date.

Length 22 m.

Type: Fishing. MMSI: 316007154.

Date/timePositionNaut miles runAvg speedWind from/ knotsBaromVisibWave heightAir tempDewpointWater temp
2018-May-02 17:26N 49°58' W 125°11'3 4.8
2018-May-02 16:49N 50°01' W 125°13'1 4.1
2018-May-02 16:30N 50°02' W 125°14'1 0.9
2018-May-02 15:55N 50°02' W 125°15'0 0.0
2018-May-02 15:25N 50°02' W 125°15'0 0.1
2018-May-02 14:18N 50°02' W 125°15'3 7.9
2018-May-02 13:58N 50°05' W 125°16'95 5.0
2018-May-01 18:49N 50°47' W 127°30'3 9.6
2018-May-01 18:30N 50°48' W 127°34'  
2018-Apr-24 18:47N 54°16' W 130°43'2 8.6
2018-Apr-24 18:30N 54°16' W 130°39'4 8.7
2018-Apr-24 18:00N 54°15' W 130°32'5 9.2
2018-Apr-24 17:29N 54°13' W 130°24'3 6.1
2018-Apr-24 17:00N 54°16' W 130°21'1 0.1
2018-Apr-23 21:36N 54°17' W 130°22'1 8.9
2018-Apr-23 21:30N 54°16' W 130°22'4 8.6
2018-Apr-23 21:00N 54°12' W 130°19'1 2.5
2018-Apr-23 20:30N 54°13' W 130°17'0 0.0
2018-Apr-23 20:00N 54°13' W 130°17'0 0.0
2018-Apr-23 19:27N 54°13' W 130°17'0 0.0
2018-Apr-23 19:00N 54°13' W 130°17'0 0.0
2018-Apr-23 18:30N 54°13' W 130°17'0 0.0
2018-Apr-23 18:00N 54°13' W 130°17'0 0.0
2018-Apr-23 17:30N 54°13' W 130°17'0 0.0
2018-Apr-23 17:00N 54°13' W 130°17'0 0.0
2018-Apr-23 16:30N 54°13' W 130°17'0 0.0
2018-Apr-23 16:00N 54°13' W 130°17'0 0.0
2018-Apr-23 15:30N 54°13' W 130°17'0 0.0
2018-Apr-23 15:00N 54°13' W 130°17'0 0.0
2018-Apr-23 14:30N 54°13' W 130°17'0 0.0
2018-Apr-23 14:00N 54°13' W 130°17'0 0.0
2018-Apr-23 13:30N 54°13' W 130°17'1 2.5
2018-Apr-23 13:00N 54°12' W 130°19'4 8.2
2018-Apr-23 12:30N 54°13' W 130°25'4 7.6
2018-Apr-23 12:00N 54°15' W 130°32'4 8.4
2018-Apr-23 11:30N 54°16' W 130°38'  
Track history (hours):
 
Tides and Currents Weather Stations Pressure Air Temp Water Temp Dewpoint Dewpoint Depression Visibility Wind Speed Wind Dir Waves Ship Positions

Bold Pursuit

Last reported at 2018-May-02 17:26 UTC. Time now 2018-May-21 01:04 UTC.
Position N 49°58' W 125°11'.
Warning: this ship's position is 18 days out of date.

Length 22 m.

Type: Fishing. MMSI: 316007154.

Date/timePositionNaut miles runAvg speedWind from/ knotsBaromVisibWave heightAir tempDewpointWater temp
2018-May-02 17:26N 49°58' W 125°11'3 4.8
2018-May-02 16:49N 50°01' W 125°13'1 4.1
2018-May-02 16:30N 50°02' W 125°14'1 0.9
2018-May-02 15:55N 50°02' W 125°15'0 0.0
2018-May-02 15:25N 50°02' W 125°15'0 0.1
2018-May-02 14:18N 50°02' W 125°15'3 7.9
2018-May-02 13:58N 50°05' W 125°16'95 5.0
2018-May-01 18:49N 50°47' W 127°30'3 9.6
2018-May-01 18:30N 50°48' W 127°34'  
2018-Apr-24 18:47N 54°16' W 130°43'2 8.6
2018-Apr-24 18:30N 54°16' W 130°39'4 8.7
2018-Apr-24 18:00N 54°15' W 130°32'5 9.2
2018-Apr-24 17:29N 54°13' W 130°24'3 6.1
2018-Apr-24 17:00N 54°16' W 130°21'1 0.1
2018-Apr-23 21:36N 54°17' W 130°22'1 8.9
2018-Apr-23 21:30N 54°16' W 130°22'4 8.6
2018-Apr-23 21:00N 54°12' W 130°19'1 2.5
2018-Apr-23 20:30N 54°13' W 130°17'0 0.0
2018-Apr-23 20:00N 54°13' W 130°17'0 0.0
2018-Apr-23 19:27N 54°13' W 130°17'0 0.0
2018-Apr-23 19:00N 54°13' W 130°17'0 0.0
2018-Apr-23 18:30N 54°13' W 130°17'0 0.0
2018-Apr-23 18:00N 54°13' W 130°17'0 0.0
2018-Apr-23 17:30N 54°13' W 130°17'0 0.0
2018-Apr-23 17:00N 54°13' W 130°17'0 0.0
2018-Apr-23 16:30N 54°13' W 130°17'0 0.0
2018-Apr-23 16:00N 54°13' W 130°17'0 0.0
2018-Apr-23 15:30N 54°13' W 130°17'0 0.0
2018-Apr-23 15:00N 54°13' W 130°17'0 0.0
2018-Apr-23 14:30N 54°13' W 130°17'0 0.0
2018-Apr-23 14:00N 54°13' W 130°17'0 0.0
2018-Apr-23 13:30N 54°13' W 130°17'1 2.5
2018-Apr-23 13:00N 54°12' W 130°19'4 8.2
2018-Apr-23 12:30N 54°13' W 130°25'4 7.6
2018-Apr-23 12:00N 54°15' W 130°32'4 8.4
2018-Apr-23 11:30N 54°16' W 130°38'  

Dump ship's entire track history